sensor_id;sensor_type;location;lat;lon;timestamp;P1;durP1;ratioP1;P2;durP2;ratioP2
68250;SDS011;55066;51.560;4.642;2023-03-26T00:01:14;19.20;;;2.83;;
68250;SDS011;55066;51.560;4.642;2023-03-26T00:03:43;25.85;;;4.07;;
68250;SDS011;55066;51.560;4.642;2023-03-26T00:06:14;28.20;;;3.38;;
68250;SDS011;55066;51.560;4.642;2023-03-26T00:08:41;28.23;;;3.40;;
68250;SDS011;55066;51.560;4.642;2023-03-26T00:11:09;24.10;;;3.75;;
68250;SDS011;55066;51.560;4.642;2023-03-26T00:13:36;25.58;;;3.65;;
68250;SDS011;55066;51.560;4.642;2023-03-26T00:16:02;28.48;;;3.20;;
68250;SDS011;55066;51.560;4.642;2023-03-26T00:18:28;31.17;;;3.22;;
68250;SDS011;55066;51.560;4.642;2023-03-26T00:20:58;34.03;;;3.63;;
68250;SDS011;55066;51.560;4.642;2023-03-26T00:23:26;28.48;;;4.38;;
68250;SDS011;55066;51.560;4.642;2023-03-26T00:25:53;28.63;;;3.72;;
68250;SDS011;55066;51.560;4.642;2023-03-26T00:28:20;31.67;;;3.65;;
68250;SDS011;55066;51.560;4.642;2023-03-26T00:30:56;28.85;;;4.25;;
68250;SDS011;55066;51.560;4.642;2023-03-26T00:33:23;24.45;;;3.30;;
68250;SDS011;55066;51.560;4.642;2023-03-26T00:35:55;31.57;;;3.63;;
68250;SDS011;55066;51.560;4.642;2023-03-26T00:38:22;27.70;;;3.45;;
68250;SDS011;55066;51.560;4.642;2023-03-26T00:40:49;34.70;;;3.67;;
68250;SDS011;55066;51.560;4.642;2023-03-26T00:43:19;25.33;;;3.53;;
68250;SDS011;55066;51.560;4.642;2023-03-26T00:45:49;34.05;;;4.25;;
68250;SDS011;55066;51.560;4.642;2023-03-26T00:48:18;25.57;;;3.07;;
68250;SDS011;55066;51.560;4.642;2023-03-26T00:50:45;24.98;;;3.63;;
68250;SDS011;55066;51.560;4.642;2023-03-26T00:53:11;27.35;;;2.83;;
68250;SDS011;55066;51.560;4.642;2023-03-26T00:55:38;22.98;;;2.83;;
68250;SDS011;55066;51.560;4.642;2023-03-26T00:58:05;23.92;;;3.30;;
68250;SDS011;55066;51.560;4.642;2023-03-26T01:00:34;26.03;;;3.13;;
68250;SDS011;55066;51.560;4.642;2023-03-26T01:03:02;31.13;;;3.60;;
68250;SDS011;55066;51.560;4.642;2023-03-26T01:08:05;18.52;;;2.95;;
68250;SDS011;55066;51.560;4.642;2023-03-26T01:10:49;18.92;;;2.80;;
68250;SDS011;55066;51.560;4.642;2023-03-26T01:13:17;21.20;;;3.40;;
68250;SDS011;55066;51.560;4.642;2023-03-26T01:15:47;20.35;;;2.70;;
68250;SDS011;55066;51.560;4.642;2023-03-26T01:18:21;26.70;;;4.07;;
68250;SDS011;55066;51.560;4.642;2023-03-26T01:20:51;19.38;;;3.85;;
68250;SDS011;55066;51.560;4.642;2023-03-26T01:23:23;20.45;;;3.17;;
68250;SDS011;55066;51.560;4.642;2023-03-26T01:26:04;20.33;;;3.53;;
68250;SDS011;55066;51.560;4.642;2023-03-26T01:28:45;29.58;;;3.75;;
68250;SDS011;55066;51.560;4.642;2023-03-26T01:31:13;32.25;;;3.50;;
68250;SDS011;55066;51.560;4.642;2023-03-26T01:33:57;38.03;;;3.80;;
68250;SDS011;55066;51.560;4.642;2023-03-26T01:36:31;26.00;;;3.60;;
68250;SDS011;55066;51.560;4.642;2023-03-26T01:39:19;20.70;;;3.28;;
68250;SDS011;55066;51.560;4.642;2023-03-26T01:42:10;26.50;;;4.20;;
68250;SDS011;55066;51.560;4.642;2023-03-26T01:44:53;23.08;;;3.30;;
68250;SDS011;55066;51.560;4.642;2023-03-26T01:47:23;20.33;;;3.00;;
68250;SDS011;55066;51.560;4.642;2023-03-26T01:49:50;22.05;;;2.85;;
68250;SDS011;55066;51.560;4.642;2023-03-26T01:52:17;26.00;;;3.53;;
68250;SDS011;55066;51.560;4.642;2023-03-26T01:54:46;22.77;;;3.38;;
68250;SDS011;55066;51.560;4.642;2023-03-26T02:02:50;26.30;;;3.53;;
68250;SDS011;55066;51.560;4.642;2023-03-26T02:05:31;23.03;;;2.93;;
68250;SDS011;55066;51.560;4.642;2023-03-26T02:08:05;32.88;;;4.22;;
68250;SDS011;55066;51.560;4.642;2023-03-26T02:10:45;31.63;;;3.70;;
68250;SDS011;55066;51.560;4.642;2023-03-26T02:13:13;32.25;;;3.85;;
68250;SDS011;55066;51.560;4.642;2023-03-26T02:15:40;24.67;;;4.20;;
68250;SDS011;55066;51.560;4.642;2023-03-26T02:18:18;32.17;;;4.23;;
68250;SDS011;55066;51.560;4.642;2023-03-26T02:20:48;27.92;;;3.63;;
68250;SDS011;55066;51.560;4.642;2023-03-26T02:23:20;28.13;;;3.97;;
68250;SDS011;55066;51.560;4.642;2023-03-26T02:25:46;26.58;;;3.50;;
68250;SDS011;55066;51.560;4.642;2023-03-26T02:28:12;23.93;;;3.93;;
68250;SDS011;55066;51.560;4.642;2023-03-26T02:30:38;22.23;;;3.75;;
68250;SDS011;55066;51.560;4.642;2023-03-26T02:33:04;36.25;;;4.82;;
68250;SDS011;55066;51.560;4.642;2023-03-26T02:35:37;32.55;;;3.72;;
68250;SDS011;55066;51.560;4.642;2023-03-26T02:38:02;25.88;;;3.45;;
68250;SDS011;55066;51.560;4.642;2023-03-26T02:40:28;34.57;;;4.37;;
68250;SDS011;55066;51.560;4.642;2023-03-26T02:42:54;27.27;;;3.38;;
68250;SDS011;55066;51.560;4.642;2023-03-26T02:45:20;21.52;;;3.40;;
68250;SDS011;55066;51.560;4.642;2023-03-26T02:48:08;23.58;;;3.03;;
68250;SDS011;55066;51.560;4.642;2023-03-26T02:51:00;25.47;;;3.57;;
68250;SDS011;55066;51.560;4.642;2023-03-26T02:53:44;33.72;;;3.22;;
68250;SDS011;55066;51.560;4.642;2023-03-26T02:56:33;36.45;;;4.25;;
68250;SDS011;55066;51.560;4.642;2023-03-26T02:59:30;21.70;;;3.72;;
68250;SDS011;55066;51.560;4.642;2023-03-26T03:02:16;27.00;;;3.25;;
68250;SDS011;55066;51.560;4.642;2023-03-26T03:04:42;23.77;;;3.27;;
68250;SDS011;55066;51.560;4.642;2023-03-26T03:07:08;25.05;;;3.90;;
68250;SDS011;55066;51.560;4.642;2023-03-26T03:09:34;28.83;;;3.50;;
68250;SDS011;55066;51.560;4.642;2023-03-26T03:12:17;16.73;;;3.00;;
68250;SDS011;55066;51.560;4.642;2023-03-26T03:14:43;23.00;;;3.70;;
68250;SDS011;55066;51.560;4.642;2023-03-26T03:17:08;24.13;;;3.00;;
68250;SDS011;55066;51.560;4.642;2023-03-26T03:19:34;21.70;;;2.67;;
68250;SDS011;55066;51.560;4.642;2023-03-26T03:21:59;25.27;;;3.53;;
68250;SDS011;55066;51.560;4.642;2023-03-26T03:24:25;25.07;;;3.70;;
68250;SDS011;55066;51.560;4.642;2023-03-26T03:26:51;26.95;;;3.67;;
68250;SDS011;55066;51.560;4.642;2023-03-26T03:29:37;22.27;;;3.45;;
68250;SDS011;55066;51.560;4.642;2023-03-26T03:32:25;28.33;;;3.38;;
68250;SDS011;55066;51.560;4.642;2023-03-26T03:34:55;23.80;;;2.75;;
68250;SDS011;55066;51.560;4.642;2023-03-26T03:37:20;24.42;;;3.67;;
68250;SDS011;55066;51.560;4.642;2023-03-26T03:39:51;24.70;;;2.75;;
68250;SDS011;55066;51.560;4.642;2023-03-26T03:42:19;17.92;;;3.05;;
68250;SDS011;55066;51.560;4.642;2023-03-26T03:44:45;25.13;;;3.40;;
68250;SDS011;55066;51.560;4.642;2023-03-26T03:47:30;27.23;;;2.92;;
68250;SDS011;55066;51.560;4.642;2023-03-26T03:49:56;24.10;;;2.80;;
68250;SDS011;55066;51.560;4.642;2023-03-26T03:52:24;23.58;;;3.17;;
68250;SDS011;55066;51.560;4.642;2023-03-26T03:54:53;19.35;;;2.85;;
68250;SDS011;55066;51.560;4.642;2023-03-26T03:57:33;23.40;;;2.93;;
68250;SDS011;55066;51.560;4.642;2023-03-26T04:00:06;23.45;;;2.45;;
68250;SDS011;55066;51.560;4.642;2023-03-26T04:02:41;22.17;;;2.83;;
68250;SDS011;55066;51.560;4.642;2023-03-26T04:05:10;16.75;;;2.75;;
68250;SDS011;55066;51.560;4.642;2023-03-26T04:07:41;19.30;;;2.63;;
68250;SDS011;55066;51.560;4.642;2023-03-26T04:10:32;22.23;;;2.90;;
68250;SDS011;55066;51.560;4.642;2023-03-26T04:13:18;19.05;;;2.90;;
68250;SDS011;55066;51.560;4.642;2023-03-26T04:15:49;21.48;;;3.20;;
68250;SDS011;55066;51.560;4.642;2023-03-26T04:18:16;17.90;;;2.65;;
68250;SDS011;55066;51.560;4.642;2023-03-26T04:20:44;21.17;;;3.30;;
68250;SDS011;55066;51.560;4.642;2023-03-26T04:23:24;14.60;;;2.77;;
68250;SDS011;55066;51.560;4.642;2023-03-26T04:25:56;17.90;;;2.55;;
68250;SDS011;55066;51.560;4.642;2023-03-26T04:28:53;23.52;;;2.80;;
68250;SDS011;55066;51.560;4.642;2023-03-26T04:31:26;18.23;;;2.63;;
68250;SDS011;55066;51.560;4.642;2023-03-26T04:34:07;23.05;;;2.97;;
68250;SDS011;55066;51.560;4.642;2023-03-26T04:36:47;14.27;;;2.80;;
68250;SDS011;55066;51.560;4.642;2023-03-26T04:39:14;15.80;;;2.70;;
68250;SDS011;55066;51.560;4.642;2023-03-26T04:42:12;16.02;;;2.53;;
68250;SDS011;55066;51.560;4.642;2023-03-26T04:44:50;18.15;;;3.03;;
68250;SDS011;55066;51.560;4.642;2023-03-26T04:47:17;21.58;;;3.15;;
68250;SDS011;55066;51.560;4.642;2023-03-26T04:49:44;21.73;;;2.73;;
68250;SDS011;55066;51.560;4.642;2023-03-26T04:52:13;18.83;;;2.92;;
68250;SDS011;55066;51.560;4.642;2023-03-26T04:54:57;21.88;;;2.85;;
68250;SDS011;55066;51.560;4.642;2023-03-26T04:57:30;14.77;;;2.40;;
68250;SDS011;55066;51.560;4.642;2023-03-26T05:00:11;22.90;;;2.80;;
68250;SDS011;55066;51.560;4.642;2023-03-26T05:02:48;15.67;;;2.60;;
68250;SDS011;55066;51.560;4.642;2023-03-26T05:05:16;17.02;;;2.80;;
68250;SDS011;55066;51.560;4.642;2023-03-26T05:07:42;17.65;;;2.65;;
68250;SDS011;55066;51.560;4.642;2023-03-26T05:10:11;19.58;;;2.63;;
68250;SDS011;55066;51.560;4.642;2023-03-26T05:12:45;15.98;;;2.28;;
68250;SDS011;55066;51.560;4.642;2023-03-26T05:15:15;14.17;;;2.40;;
68250;SDS011;55066;51.560;4.642;2023-03-26T05:17:49;11.52;;;2.03;;
68250;SDS011;55066;51.560;4.642;2023-03-26T05:20:35;14.52;;;1.98;;
68250;SDS011;55066;51.560;4.642;2023-03-26T05:23:04;8.35;;;1.52;;
68250;SDS011;55066;51.560;4.642;2023-03-26T05:25:33;5.15;;;1.30;;
68250;SDS011;55066;51.560;4.642;2023-03-26T05:28:00;12.40;;;1.70;;
68250;SDS011;55066;51.560;4.642;2023-03-26T05:30:34;9.93;;;1.50;;
68250;SDS011;55066;51.560;4.642;2023-03-26T05:33:01;5.80;;;1.25;;
68250;SDS011;55066;51.560;4.642;2023-03-26T05:35:33;7.05;;;1.23;;
68250;SDS011;55066;51.560;4.642;2023-03-26T05:37:59;6.83;;;1.40;;
68250;SDS011;55066;51.560;4.642;2023-03-26T05:40:25;7.75;;;1.13;;
68250;SDS011;55066;51.560;4.642;2023-03-26T05:42:54;7.00;;;1.50;;
68250;SDS011;55066;51.560;4.642;2023-03-26T05:45:38;5.77;;;1.00;;
68250;SDS011;55066;51.560;4.642;2023-03-26T05:48:22;4.28;;;1.00;;
68250;SDS011;55066;51.560;4.642;2023-03-26T05:50:49;6.18;;;1.08;;
68250;SDS011;55066;51.560;4.642;2023-03-26T05:53:17;5.03;;;0.90;;
68250;SDS011;55066;51.560;4.642;2023-03-26T05:55:44;9.23;;;1.40;;
68250;SDS011;55066;51.560;4.642;2023-03-26T05:58:31;10.40;;;1.23;;
68250;SDS011;55066;51.560;4.642;2023-03-26T06:01:16;3.83;;;0.73;;
68250;SDS011;55066;51.560;4.642;2023-03-26T06:04:02;6.68;;;1.02;;
68250;SDS011;55066;51.560;4.642;2023-03-26T06:06:32;3.72;;;0.80;;
68250;SDS011;55066;51.560;4.642;2023-03-26T06:08:58;7.40;;;1.10;;
68250;SDS011;55066;51.560;4.642;2023-03-26T06:11:25;4.80;;;0.88;;
68250;SDS011;55066;51.560;4.642;2023-03-26T06:13:51;12.40;;;0.97;;
68250;SDS011;55066;51.560;4.642;2023-03-26T06:16:16;2.58;;;0.70;;
68250;SDS011;55066;51.560;4.642;2023-03-26T06:18:46;4.55;;;0.90;;
68250;SDS011;55066;51.560;4.642;2023-03-26T06:21:41;7.40;;;1.00;;
68250;SDS011;55066;51.560;4.642;2023-03-26T06:24:13;6.15;;;1.10;;
68250;SDS011;55066;51.560;4.642;2023-03-26T06:26:59;4.38;;;0.77;;
68250;SDS011;55066;51.560;4.642;2023-03-26T06:29:43;4.22;;;0.90;;
68250;SDS011;55066;51.560;4.642;2023-03-26T06:32:16;5.47;;;0.98;;
68250;SDS011;55066;51.560;4.642;2023-03-26T06:34:46;5.78;;;1.23;;
68250;SDS011;55066;51.560;4.642;2023-03-26T06:37:12;4.20;;;0.77;;
68250;SDS011;55066;51.560;4.642;2023-03-26T06:39:37;5.13;;;0.88;;
68250;SDS011;55066;51.560;4.642;2023-03-26T06:42:22;4.70;;;1.00;;
68250;SDS011;55066;51.560;4.642;2023-03-26T06:45:07;7.18;;;1.15;;
68250;SDS011;55066;51.560;4.642;2023-03-26T06:47:33;5.78;;;1.10;;
68250;SDS011;55066;51.560;4.642;2023-03-26T06:50:17;5.28;;;1.02;;
68250;SDS011;55066;51.560;4.642;2023-03-26T06:53:08;7.22;;;1.02;;
68250;SDS011;55066;51.560;4.642;2023-03-26T06:55:44;3.22;;;0.82;;
68250;SDS011;55066;51.560;4.642;2023-03-26T06:58:28;5.93;;;1.27;;
68250;SDS011;55066;51.560;4.642;2023-03-26T07:00:54;3.80;;;1.13;;
68250;SDS011;55066;51.560;4.642;2023-03-26T07:03:39;8.10;;;1.10;;
68250;SDS011;55066;51.560;4.642;2023-03-26T07:06:23;5.18;;;1.33;;
68250;SDS011;55066;51.560;4.642;2023-03-26T07:09:15;5.93;;;1.40;;
68250;SDS011;55066;51.560;4.642;2023-03-26T07:12:04;5.90;;;1.73;;
68250;SDS011;55066;51.560;4.642;2023-03-26T07:14:48;4.82;;;1.50;;
68250;SDS011;55066;51.560;4.642;2023-03-26T07:17:46;6.82;;;1.77;;
68250;SDS011;55066;51.560;4.642;2023-03-26T07:20:24;7.70;;;1.65;;
68250;SDS011;55066;51.560;4.642;2023-03-26T07:22:50;8.05;;;1.73;;
68250;SDS011;55066;51.560;4.642;2023-03-26T07:25:36;8.80;;;1.60;;
68250;SDS011;55066;51.560;4.642;2023-03-26T07:28:19;9.38;;;1.80;;
68250;SDS011;55066;51.560;4.642;2023-03-26T07:34:03;10.18;;;2.00;;
68250;SDS011;55066;51.560;4.642;2023-03-26T07:36:52;9.95;;;2.05;;
68250;SDS011;55066;51.560;4.642;2023-03-26T07:42:35;10.68;;;2.33;;
68250;SDS011;55066;51.560;4.642;2023-03-26T07:45:32;14.68;;;2.60;;
68250;SDS011;55066;51.560;4.642;2023-03-26T07:48:22;10.55;;;3.03;;
68250;SDS011;55066;51.560;4.642;2023-03-26T07:51:08;13.10;;;3.47;;
68250;SDS011;55066;51.560;4.642;2023-03-26T07:54:07;17.10;;;3.90;;
68250;SDS011;55066;51.560;4.642;2023-03-26T07:57:17;13.48;;;3.92;;
68250;SDS011;55066;51.560;4.642;2023-03-26T08:05:49;16.30;;;5.30;;
68250;SDS011;55066;51.560;4.642;2023-03-26T08:11:47;13.48;;;3.33;;
68250;SDS011;55066;51.560;4.642;2023-03-26T08:22:22;16.27;;;3.90;;
68250;SDS011;55066;51.560;4.642;2023-03-26T08:27:50;14.25;;;4.18;;
68250;SDS011;55066;51.560;4.642;2023-03-26T08:30:26;15.75;;;4.50;;
68250;SDS011;55066;51.560;4.642;2023-03-26T08:32:56;14.25;;;4.43;;
68250;SDS011;55066;51.560;4.642;2023-03-26T08:35:23;14.87;;;4.30;;
68250;SDS011;55066;51.560;4.642;2023-03-26T08:37:49;18.13;;;4.50;;
68250;SDS011;55066;51.560;4.642;2023-03-26T08:40:18;17.48;;;4.80;;
68250;SDS011;55066;51.560;4.642;2023-03-26T08:46:13;18.52;;;4.60;;
68250;SDS011;55066;51.560;4.642;2023-03-26T08:51:50;18.33;;;4.47;;
68250;SDS011;55066;51.560;4.642;2023-03-26T08:57:17;12.38;;;3.70;;
68250;SDS011;55066;51.560;4.642;2023-03-26T09:11:18;14.75;;;3.25;;
68250;SDS011;55066;51.560;4.642;2023-03-26T09:17:04;13.45;;;2.95;;
68250;SDS011;55066;51.560;4.642;2023-03-26T09:29:42;15.50;;;2.83;;
68250;SDS011;55066;51.560;4.642;2023-03-26T09:37:09;10.10;;;1.75;;
68250;SDS011;55066;51.560;4.642;2023-03-26T10:01:47;7.28;;;1.27;;
68250;SDS011;55066;51.560;4.642;2023-03-26T10:04:38;4.68;;;1.15;;
68250;SDS011;55066;51.560;4.642;2023-03-26T10:07:36;4.63;;;1.30;;
68250;SDS011;55066;51.560;4.642;2023-03-26T10:10:14;4.80;;;1.37;;
68250;SDS011;55066;51.560;4.642;2023-03-26T10:16:01;7.78;;;1.27;;
68250;SDS011;55066;51.560;4.642;2023-03-26T10:29:40;7.07;;;1.30;;
68250;SDS011;55066;51.560;4.642;2023-03-26T10:32:24;6.30;;;1.20;;
68250;SDS011;55066;51.560;4.642;2023-03-26T10:43:12;6.47;;;1.87;;
68250;SDS011;55066;51.560;4.642;2023-03-26T10:48:51;7.85;;;1.27;;
68250;SDS011;55066;51.560;4.642;2023-03-26T10:54:28;8.23;;;1.48;;
68250;SDS011;55066;51.560;4.642;2023-03-26T10:57:18;4.90;;;1.43;;
68250;SDS011;55066;51.560;4.642;2023-03-26T10:59:51;6.45;;;1.50;;
68250;SDS011;55066;51.560;4.642;2023-03-26T11:12:52;5.65;;;1.13;;
68250;SDS011;55066;51.560;4.642;2023-03-26T11:21:03;5.60;;;1.30;;
68250;SDS011;55066;51.560;4.642;2023-03-26T11:26:04;5.70;;;1.38;;
68250;SDS011;55066;51.560;4.642;2023-03-26T11:28:46;4.18;;;1.20;;
68250;SDS011;55066;51.560;4.642;2023-03-26T11:31:49;4.85;;;1.15;;
68250;SDS011;55066;51.560;4.642;2023-03-26T11:34:37;4.35;;;1.20;;
68250;SDS011;55066;51.560;4.642;2023-03-26T11:37:11;6.30;;;1.40;;
68250;SDS011;55066;51.560;4.642;2023-03-26T11:39:47;3.63;;;1.15;;
68250;SDS011;55066;51.560;4.642;2023-03-26T11:42:16;6.05;;;1.60;;
68250;SDS011;55066;51.560;4.642;2023-03-26T11:44:50;6.30;;;1.70;;
68250;SDS011;55066;51.560;4.642;2023-03-26T11:47:20;4.22;;;1.50;;
68250;SDS011;55066;51.560;4.642;2023-03-26T11:49:57;6.53;;;1.60;;
68250;SDS011;55066;51.560;4.642;2023-03-26T11:52:24;7.72;;;1.80;;
68250;SDS011;55066;51.560;4.642;2023-03-26T11:54:50;4.25;;;1.45;;
68250;SDS011;55066;51.560;4.642;2023-03-26T11:57:24;5.80;;;1.77;;
68250;SDS011;55066;51.560;4.642;2023-03-26T11:59:59;6.93;;;2.08;;
68250;SDS011;55066;51.560;4.642;2023-03-26T12:02:38;6.15;;;1.98;;
68250;SDS011;55066;51.560;4.642;2023-03-26T12:07:49;6.93;;;2.13;;
68250;SDS011;55066;51.560;4.642;2023-03-26T12:10:24;7.97;;;2.65;;
68250;SDS011;55066;51.560;4.642;2023-03-26T12:12:52;10.15;;;3.20;;
68250;SDS011;55066;51.560;4.642;2023-03-26T12:15:20;8.57;;;3.05;;
68250;SDS011;55066;51.560;4.642;2023-03-26T12:17:47;9.38;;;3.10;;
68250;SDS011;55066;51.560;4.642;2023-03-26T12:22:58;6.65;;;2.80;;
68250;SDS011;55066;51.560;4.642;2023-03-26T12:25:30;6.93;;;2.60;;
68250;SDS011;55066;51.560;4.642;2023-03-26T12:31:20;8.40;;;2.78;;
68250;SDS011;55066;51.560;4.642;2023-03-26T12:33:28;7.68;;;2.50;;
68250;SDS011;55066;51.560;4.642;2023-03-26T12:35:58;7.68;;;2.28;;
68250;SDS011;55066;51.560;4.642;2023-03-26T12:38:40;8.85;;;2.17;;
68250;SDS011;55066;51.560;4.642;2023-03-26T12:46:27;3.70;;;1.38;;
68250;SDS011;55066;51.560;4.642;2023-03-26T12:48:54;4.75;;;1.20;;
68250;SDS011;55066;51.560;4.642;2023-03-26T12:51:29;3.92;;;1.17;;
68250;SDS011;55066;51.560;4.642;2023-03-26T12:56:49;4.53;;;1.10;;
68250;SDS011;55066;51.560;4.642;2023-03-26T13:02:43;3.28;;;1.05;;
68250;SDS011;55066;51.560;4.642;2023-03-26T13:05:16;3.55;;;1.17;;
68250;SDS011;55066;51.560;4.642;2023-03-26T13:07:58;4.00;;;1.27;;
68250;SDS011;55066;51.560;4.642;2023-03-26T13:16:23;4.93;;;1.45;;
68250;SDS011;55066;51.560;4.642;2023-03-26T13:21:43;9.45;;;2.70;;
68250;SDS011;55066;51.560;4.642;2023-03-26T13:24:27;8.52;;;2.72;;
68250;SDS011;55066;51.560;4.642;2023-03-26T13:40:13;9.67;;;3.07;;
68250;SDS011;55066;51.560;4.642;2023-03-26T13:48:20;8.18;;;2.60;;
68250;SDS011;55066;51.560;4.642;2023-03-26T13:50:56;12.35;;;3.20;;
68250;SDS011;55066;51.560;4.642;2023-03-26T13:56:58;8.38;;;2.45;;
68250;SDS011;55066;51.560;4.642;2023-03-26T13:59:37;7.97;;;2.63;;
68250;SDS011;55066;51.560;4.642;2023-03-26T14:02:09;10.93;;;2.45;;
68250;SDS011;55066;51.560;4.642;2023-03-26T14:04:44;20.42;;;3.38;;
68250;SDS011;55066;51.560;4.642;2023-03-26T14:07:15;12.02;;;3.33;;
68250;SDS011;55066;51.560;4.642;2023-03-26T14:15:12;13.15;;;2.45;;
68250;SDS011;55066;51.560;4.642;2023-03-26T14:20:26;10.68;;;2.25;;
68250;SDS011;55066;51.560;4.642;2023-03-26T14:23:21;9.70;;;2.17;;
68250;SDS011;55066;51.560;4.642;2023-03-26T14:34:44;12.38;;;2.22;;
68250;SDS011;55066;51.560;4.642;2023-03-26T14:37:49;7.95;;;1.92;;
68250;SDS011;55066;51.560;4.642;2023-03-26T14:46:55;13.60;;;2.28;;
68250;SDS011;55066;51.560;4.642;2023-03-26T14:52:36;14.07;;;2.10;;
68250;SDS011;55066;51.560;4.642;2023-03-26T14:55:36;9.40;;;2.33;;
68250;SDS011;55066;51.560;4.642;2023-03-26T15:01:28;12.32;;;2.42;;
68250;SDS011;55066;51.560;4.642;2023-03-26T15:19:08;9.50;;;1.63;;
68250;SDS011;55066;51.560;4.642;2023-03-26T15:27:36;7.93;;;1.30;;
68250;SDS011;55066;51.560;4.642;2023-03-26T15:50:22;9.60;;;1.60;;
68250;SDS011;55066;51.560;4.642;2023-03-26T16:04:06;8.02;;;1.67;;
68250;SDS011;55066;51.560;4.642;2023-03-26T16:06:56;8.80;;;1.70;;
68250;SDS011;55066;51.560;4.642;2023-03-26T16:09:32;11.95;;;1.50;;
68250;SDS011;55066;51.560;4.642;2023-03-26T16:14:43;6.90;;;1.70;;
68250;SDS011;55066;51.560;4.642;2023-03-26T16:17:28;7.85;;;1.60;;
68250;SDS011;55066;51.560;4.642;2023-03-26T16:20:34;11.82;;;1.90;;
68250;SDS011;55066;51.560;4.642;2023-03-26T16:26:21;4.55;;;1.17;;
68250;SDS011;55066;51.560;4.642;2023-03-26T16:31:18;6.80;;;2.10;;
68250;SDS011;55066;51.560;4.642;2023-03-26T16:41:30;7.07;;;1.77;;
68250;SDS011;55066;51.560;4.642;2023-03-26T16:43:59;9.90;;;1.65;;
68250;SDS011;55066;51.560;4.642;2023-03-26T16:46:57;9.13;;;1.33;;
68250;SDS011;55066;51.560;4.642;2023-03-26T16:49:39;5.45;;;1.30;;
68250;SDS011;55066;51.560;4.642;2023-03-26T16:55:36;7.07;;;1.67;;
68250;SDS011;55066;51.560;4.642;2023-03-26T16:58:14;7.15;;;1.42;;
68250;SDS011;55066;51.560;4.642;2023-03-26T17:00:50;10.93;;;2.13;;
68250;SDS011;55066;51.560;4.642;2023-03-26T17:03:26;5.13;;;1.45;;
68250;SDS011;55066;51.560;4.642;2023-03-26T17:06:03;8.43;;;1.50;;
68250;SDS011;55066;51.560;4.642;2023-03-26T17:08:43;8.27;;;1.27;;
68250;SDS011;55066;51.560;4.642;2023-03-26T17:11:19;9.32;;;1.45;;
68250;SDS011;55066;51.560;4.642;2023-03-26T17:14:48;3.40;;;1.20;;
68250;SDS011;55066;51.560;4.642;2023-03-26T17:19:54;12.03;;;1.30;;
68250;SDS011;55066;51.560;4.642;2023-03-26T17:28:14;14.27;;;1.77;;
68250;SDS011;55066;51.560;4.642;2023-03-26T17:30:48;10.68;;;1.65;;
68250;SDS011;55066;51.560;4.642;2023-03-26T17:35:50;7.82;;;1.38;;
68250;SDS011;55066;51.560;4.642;2023-03-26T17:41:04;10.00;;;1.63;;
68250;SDS011;55066;51.560;4.642;2023-03-26T17:48:58;8.82;;;1.60;;
68250;SDS011;55066;51.560;4.642;2023-03-26T17:51:55;6.68;;;1.58;;
68250;SDS011;55066;51.560;4.642;2023-03-26T17:54:37;9.98;;;1.77;;
68250;SDS011;55066;51.560;4.642;2023-03-26T17:57:15;8.07;;;1.65;;
68250;SDS011;55066;51.560;4.642;2023-03-26T17:59:49;4.70;;;1.00;;
68250;SDS011;55066;51.560;4.642;2023-03-26T18:02:26;4.77;;;1.07;;
68250;SDS011;55066;51.560;4.642;2023-03-26T18:05:14;10.38;;;1.67;;
68250;SDS011;55066;51.560;4.642;2023-03-26T18:16:40;8.98;;;1.40;;
68250;SDS011;55066;51.560;4.642;2023-03-26T18:19:26;10.80;;;1.55;;
68250;SDS011;55066;51.560;4.642;2023-03-26T18:21:55;8.82;;;1.88;;
68250;SDS011;55066;51.560;4.642;2023-03-26T18:24:29;12.48;;;1.60;;
68250;SDS011;55066;51.560;4.642;2023-03-26T18:26:57;6.43;;;1.33;;
68250;SDS011;55066;51.560;4.642;2023-03-26T18:29:31;10.32;;;1.63;;
68250;SDS011;55066;51.560;4.642;2023-03-26T18:34:33;9.43;;;1.90;;
68250;SDS011;55066;51.560;4.642;2023-03-26T18:37:09;8.05;;;1.20;;
68250;SDS011;55066;51.560;4.642;2023-03-26T18:42:48;6.95;;;1.13;;
68250;SDS011;55066;51.560;4.642;2023-03-26T18:47:50;3.85;;;0.93;;
68250;SDS011;55066;51.560;4.642;2023-03-26T18:50:25;9.75;;;2.08;;
68250;SDS011;55066;51.560;4.642;2023-03-26T18:53:00;7.38;;;1.05;;
68250;SDS011;55066;51.560;4.642;2023-03-26T18:55:29;5.15;;;1.20;;
68250;SDS011;55066;51.560;4.642;2023-03-26T18:58:08;8.80;;;1.10;;
68250;SDS011;55066;51.560;4.642;2023-03-26T19:00:46;8.45;;;1.17;;
68250;SDS011;55066;51.560;4.642;2023-03-26T19:03:14;5.30;;;1.17;;
68250;SDS011;55066;51.560;4.642;2023-03-26T19:05:44;8.20;;;1.45;;
68250;SDS011;55066;51.560;4.642;2023-03-26T19:08:10;7.30;;;1.00;;
68250;SDS011;55066;51.560;4.642;2023-03-26T19:10:36;10.10;;;1.40;;
68250;SDS011;55066;51.560;4.642;2023-03-26T19:13:02;6.40;;;1.65;;
68250;SDS011;55066;51.560;4.642;2023-03-26T19:15:31;6.17;;;1.20;;
68250;SDS011;55066;51.560;4.642;2023-03-26T19:18:02;7.28;;;1.27;;
68250;SDS011;55066;51.560;4.642;2023-03-26T19:20:46;6.85;;;1.40;;
68250;SDS011;55066;51.560;4.642;2023-03-26T19:23:15;4.50;;;1.17;;
68250;SDS011;55066;51.560;4.642;2023-03-26T19:25:46;9.00;;;1.40;;
68250;SDS011;55066;51.560;4.642;2023-03-26T19:28:22;6.40;;;1.00;;
68250;SDS011;55066;51.560;4.642;2023-03-26T19:30:54;7.28;;;1.35;;
68250;SDS011;55066;51.560;4.642;2023-03-26T19:33:22;5.50;;;1.17;;
68250;SDS011;55066;51.560;4.642;2023-03-26T19:36:00;5.88;;;1.38;;
68250;SDS011;55066;51.560;4.642;2023-03-26T19:38:36;6.40;;;1.20;;
68250;SDS011;55066;51.560;4.642;2023-03-26T19:44:01;4.95;;;0.90;;
68250;SDS011;55066;51.560;4.642;2023-03-26T19:46:47;5.88;;;1.02;;
68250;SDS011;55066;51.560;4.642;2023-03-26T19:49:29;8.93;;;1.73;;
68250;SDS011;55066;51.560;4.642;2023-03-26T19:52:32;5.20;;;1.30;;
68250;SDS011;55066;51.560;4.642;2023-03-26T19:57:31;5.18;;;0.95;;
68250;SDS011;55066;51.560;4.642;2023-03-26T20:00:00;6.80;;;1.30;;
68250;SDS011;55066;51.560;4.642;2023-03-26T20:02:30;7.88;;;1.30;;
68250;SDS011;55066;51.560;4.642;2023-03-26T20:04:55;6.10;;;1.47;;
68250;SDS011;55066;51.560;4.642;2023-03-26T20:07:23;6.95;;;1.05;;
68250;SDS011;55066;51.560;4.642;2023-03-26T20:09:53;11.57;;;1.30;;
68250;SDS011;55066;51.560;4.642;2023-03-26T20:12:19;8.47;;;0.97;;
68250;SDS011;55066;51.560;4.642;2023-03-26T20:14:45;8.45;;;1.00;;
68250;SDS011;55066;51.560;4.642;2023-03-26T20:17:13;8.57;;;1.13;;
68250;SDS011;55066;51.560;4.642;2023-03-26T20:19:40;9.85;;;1.20;;
68250;SDS011;55066;51.560;4.642;2023-03-26T20:22:11;3.80;;;1.00;;
68250;SDS011;55066;51.560;4.642;2023-03-26T20:24:38;11.23;;;1.10;;
68250;SDS011;55066;51.560;4.642;2023-03-26T20:27:05;5.15;;;1.17;;
68250;SDS011;55066;51.560;4.642;2023-03-26T20:29:31;8.93;;;1.77;;
68250;SDS011;55066;51.560;4.642;2023-03-26T20:31:57;6.97;;;1.27;;
68250;SDS011;55066;51.560;4.642;2023-03-26T20:34:23;7.23;;;0.90;;
68250;SDS011;55066;51.560;4.642;2023-03-26T20:36:49;8.25;;;1.10;;
68250;SDS011;55066;51.560;4.642;2023-03-26T20:39:19;5.95;;;1.77;;
68250;SDS011;55066;51.560;4.642;2023-03-26T20:41:47;13.30;;;1.73;;
68250;SDS011;55066;51.560;4.642;2023-03-26T20:44:15;7.78;;;1.00;;
68250;SDS011;55066;51.560;4.642;2023-03-26T20:46:42;10.80;;;1.85;;
68250;SDS011;55066;51.560;4.642;2023-03-26T20:49:09;9.18;;;1.83;;
68250;SDS011;55066;51.560;4.642;2023-03-26T20:51:38;8.68;;;1.25;;
68250;SDS011;55066;51.560;4.642;2023-03-26T20:54:07;7.83;;;1.20;;
68250;SDS011;55066;51.560;4.642;2023-03-26T20:56:38;10.25;;;1.23;;
68250;SDS011;55066;51.560;4.642;2023-03-26T20:59:05;8.88;;;1.60;;
68250;SDS011;55066;51.560;4.642;2023-03-26T21:01:33;9.68;;;1.08;;